Time,TemperatureF,DewpointF,PressureIn,WindDirection,WindDirectionDegrees,WindSpeedMPH,WindSpeedGustMPH,Humidity,HourlyPrecipIn,Conditions,Clouds,dailyrainin,SoftwareType,DateUTC
2013-05-10 00:02:00,66.8,66.5,30.50,East,96,4.0,6.0,99,-0.18,,,0.00,Weather View 32 v70,2013-05-10 05:02:00,
2013-05-10 00:07:00,66.7,66.4,30.50,ENE,73,4.0,6.0,99,-0.18,,,0.00,Weather View 32 v70,2013-05-10 05:07:00,
2013-05-10 00:12:00,66.9,66.6,30.50,ENE,73,5.0,8.0,99,-0.18,,,0.00,Weather View 32 v70,2013-05-10 05:12:00,
2013-05-10 00:17:00,66.9,66.6,30.50,East,96,4.0,10.0,99,-0.18,,,0.00,Weather View 32 v70,2013-05-10 05:17:00,
2013-05-10 00:22:00,66.7,66.4,30.50,ENE,73,6.0,10.0,99,-0.18,,,0.00,Weather View 32 v70,2013-05-10 05:22:00,
2013-05-10 00:27:00,66.6,66.3,30.50,ESE,118,5.0,10.0,99,-0.18,,,0.00,Weather View 32 v70,2013-05-10 05:27:00,
2013-05-10 00:32:00,66.5,66.2,30.49,ESE,118,3.0,10.0,99,-0.18,,,0.00,Weather View 32 v70,2013-05-10 05:32:00,
2013-05-10 00:37:00,66.6,66.3,30.49,ENE,73,1.0,10.0,99,-0.18,,,0.00,Weather View 32 v70,2013-05-10 05:37:00,
2013-05-10 00:42:00,66.5,66.2,30.49,ENE,73,1.0,10.0,99,-0.18,,,0.00,Weather View 32 v70,2013-05-10 05:42:00,
2013-05-10 00:47:00,66.3,66.0,30.49,ESE,118,1.0,10.0,99,-0.18,,,0.00,Weather View 32 v70,2013-05-10 05:47:00,
2013-05-10 00:52:00,66.3,66.0,30.49,East,96,3.0,10.0,99,-0.18,,,0.00,Weather View 32 v70,2013-05-10 05:52:00,
2013-05-10 00:57:00,66.2,65.9,30.48,East,96,2.0,10.0,99,-0.18,,,0.00,Weather View 32 v70,2013-05-10 05:57:00,
2013-05-10 01:02:00,66.0,65.7,30.48,East,96,0.0,10.0,99,0.00,,,0.00,Weather View 32 v70,2013-05-10 06:02:00,
2013-05-10 01:07:00,65.9,65.6,30.48,ENE,73,1.0,10.0,99,0.00,,,0.00,Weather View 32 v70,2013-05-10 06:07:00,
2013-05-10 01:12:00,66.0,65.7,30.47,NE,51,0.0,10.0,99,0.00,,,0.00,Weather View 32 v70,2013-05-10 06:12:00,
2013-05-10 01:17:00,66.0,65.7,30.47,NE,51,1.0,8.0,99,0.00,,,0.00,Weather View 32 v70,2013-05-10 06:17:00,
2013-05-10 01:22:00,65.8,65.5,30.47,NE,51,2.0,8.0,99,0.00,,,0.00,Weather View 32 v70,2013-05-10 06:22:00,
2013-05-10 01:27:00,65.8,65.5,30.47,NE,51,1.0,6.0,99,0.00,,,0.00,Weather View 32 v70,2013-05-10 06:27:00,
2013-05-10 01:32:00,65.7,65.4,30.47,NE,51,0.0,5.0,99,0.00,,,0.00,Weather View 32 v70,2013-05-10 06:32:00,
2013-05-10 01:37:00,65.5,65.2,30.47,NNE,28,0.0,4.0,99,0.00,,,0.00,Weather View 32 v70,2013-05-10 06:37:00,
2013-05-10 01:42:00,65.3,65.0,30.47,NNE,28,0.0,4.0,99,0.00,,,0.00,Weather View 32 v70,2013-05-10 06:42:00,
2013-05-10 01:47:00,65.3,65.0,30.47,NNE,28,2.0,4.0,99,0.00,,,0.00,Weather View 32 v70,2013-05-10 06:47:00,
2013-05-10 01:52:00,65.0,64.7,30.47,ESE,118,1.0,4.0,99,0.00,,,0.00,Weather View 32 v70,2013-05-10 06:52:00,
2013-05-10 01:57:00,65.1,64.8,30.47,East,96,1.0,4.0,99,0.00,,,0.00,Weather View 32 v70,2013-05-10 06:57:00,
2013-05-10 02:02:00,65.2,64.9,30.46,ENE,73,0.0,4.0,99,0.00,,,0.00,Weather View 32 v70,2013-05-10 07:02:00,
2013-05-10 02:07:00,65.3,65.0,30.47,NE,51,1.0,4.0,99,0.00,,,0.00,Weather View 32 v70,2013-05-10 07:07:00,
2013-05-10 02:12:00,65.4,65.1,30.47,WNW,298,0.0,4.0,99,0.00,,,0.00,Weather View 32 v70,2013-05-10 07:12:00,
2013-05-10 02:17:00,65.3,65.0,30.47,NNE,28,0.0,4.0,99,0.00,,,0.00,Weather View 32 v70,2013-05-10 07:17:00,
2013-05-10 02:22:00,65.3,65.0,30.47,North,6,0.0,4.0,99,0.00,,,0.00,Weather View 32 v70,2013-05-10 07:22:00,
2013-05-10 02:27:00,65.5,65.2,30.47,NE,51,0.0,2.0,99,0.00,,,0.00,Weather View 32 v70,2013-05-10 07:27:00,
2013-05-10 02:32:00,65.4,65.1,30.47,ENE,73,0.0,2.0,99,0.00,,,0.00,Weather View 32 v70,2013-05-10 07:32:00,
2013-05-10 02:37:00,65.2,64.9,30.47,East,96,2.0,3.0,99,0.00,,,0.00,Weather View 32 v70,2013-05-10 07:37:00,
2013-05-10 02:42:00,65.2,64.9,30.46,ESE,118,5.0,5.0,99,0.00,,,0.00,Weather View 32 v70,2013-05-10 07:42:00,
2013-05-10 02:47:00,65.1,64.8,30.46,SE,141,5.0,6.0,99,0.00,,,0.00,Weather View 32 v70,2013-05-10 07:47:00,
2013-05-10 02:52:00,65.0,64.7,30.46,East,96,3.0,6.0,99,0.00,,,0.00,Weather View 32 v70,2013-05-10 07:52:00,
2013-05-10 02:57:00,64.9,64.6,30.46,SE,141,3.0,6.0,99,0.00,,,0.00,Weather View 32 v70,2013-05-10 07:57:00,
2013-05-10 03:02:00,64.8,64.5,30.46,SE,141,3.0,6.0,99,0.00,,,0.00,Weather View 32 v70,2013-05-10 08:02:00,
2013-05-10 03:07:00,64.8,64.5,30.46,NE,51,0.0,6.0,99,0.00,,,0.00,Weather View 32 v70,2013-05-10 08:07:00,
2013-05-10 03:12:00,64.7,64.4,30.45,NE,51,0.0,6.0,99,0.00,,,0.00,Weather View 32 v70,2013-05-10 08:12:00,
2013-05-10 03:17:00,64.3,64.0,30.45,ENE,73,2.0,6.0,99,0.00,,,0.00,Weather View 32 v70,2013-05-10 08:17:00,
2013-05-10 03:22:00,64.3,64.0,30.45,NE,51,0.0,6.0,99,0.00,,,0.00,Weather View 32 v70,2013-05-10 08:22:00,
2013-05-10 03:27:00,64.3,64.0,30.45,NNE,28,3.0,6.0,99,0.00,,,0.00,Weather View 32 v70,2013-05-10 08:27:00,
2013-05-10 03:32:00,64.0,63.7,30.44,ENE,73,1.0,6.0,99,0.00,,,0.00,Weather View 32 v70,2013-05-10 08:32:00,
2013-05-10 03:37:00,64.0,63.7,30.45,NE,51,1.0,6.0,99,0.00,,,0.00,Weather View 32 v70,2013-05-10 08:37:00,
2013-05-10 03:42:00,63.4,63.1,30.46,NW,321,4.0,6.0,99,0.00,,,0.00,Weather View 32 v70,2013-05-10 08:42:00,
2013-05-10 03:47:00,63.1,62.8,30.46,NE,51,0.0,6.0,99,0.00,,,0.00,Weather View 32 v70,2013-05-10 08:47:00,
2013-05-10 03:52:00,63.2,62.9,30.46,ENE,73,0.0,6.0,99,0.00,,,0.00,Weather View 32 v70,2013-05-10 08:52:00,
2013-05-10 03:57:00,63.3,63.0,30.46,NNE,28,0.0,6.0,99,0.00,,,0.00,Weather View 32 v70,2013-05-10 08:57:00,
2013-05-10 04:02:00,63.5,63.5,30.46,NNE,28,0.0,5.0,100,0.00,,,0.00,Weather View 32 v70,2013-05-10 09:02:00,
2013-05-10 04:07:00,63.5,63.5,30.45,NNE,28,0.0,5.0,100,0.00,,,0.00,Weather View 32 v70,2013-05-10 09:07:00,
2013-05-10 04:12:00,63.5,63.5,30.45,NNE,28,0.0,5.0,100,0.00,,,0.00,Weather View 32 v70,2013-05-10 09:12:00,
2013-05-10 04:17:00,63.5,63.5,30.44,ENE,73,0.0,5.0,100,0.00,,,0.00,Weather View 32 v70,2013-05-10 09:17:00,
2013-05-10 04:22:00,63.8,63.8,30.45,NW,321,2.0,5.0,100,0.00,,,0.00,Weather View 32 v70,2013-05-10 09:22:00,
2013-05-10 04:27:00,63.7,63.7,30.45,NNW,343,3.0,5.0,100,0.00,,,0.00,Weather View 32 v70,2013-05-10 09:27:00,
2013-05-10 04:32:00,63.9,63.9,30.47,NNW,343,5.0,5.0,100,0.00,,,0.00,Weather View 32 v70,2013-05-10 09:32:00,
2013-05-10 04:37:00,64.1,64.1,30.47,NW,321,1.0,5.0,100,0.00,,,0.00,Weather View 32 v70,2013-05-10 09:37:00,
2013-05-10 04:42:00,64.4,64.4,30.47,NNW,343,0.0,5.0,100,0.00,,,0.00,Weather View 32 v70,2013-05-10 09:42:00,
2013-05-10 04:47:00,64.5,64.5,30.47,NE,51,0.0,5.0,100,0.00,,,0.00,Weather View 32 v70,2013-05-10 09:47:00,
2013-05-10 04:52:00,64.5,64.5,30.47,NNW,343,0.0,5.0,100,0.00,,,0.00,Weather View 32 v70,2013-05-10 09:52:00,
2013-05-10 04:57:00,64.6,64.6,30.46,NNW,343,1.0,5.0,100,0.00,,,0.00,Weather View 32 v70,2013-05-10 09:57:00,
2013-05-10 05:02:00,64.7,64.7,30.46,NW,321,3.0,5.0,100,0.00,,,0.00,Weather View 32 v70,2013-05-10 10:02:00,
2013-05-10 05:07:00,64.8,64.8,30.46,NNE,28,1.0,5.0,100,0.00,,,0.00,Weather View 32 v70,2013-05-10 10:07:00,
2013-05-10 05:12:00,64.9,64.9,30.46,North,6,3.0,5.0,100,0.00,,,0.00,Weather View 32 v70,2013-05-10 10:12:00,
2013-05-10 05:17:00,65.1,65.1,30.47,North,6,5.0,7.0,100,0.00,,,0.00,Weather View 32 v70,2013-05-10 10:17:00,
2013-05-10 05:22:00,65.2,64.9,30.47,NW,321,3.0,7.0,99,0.00,,,0.00,Weather View 32 v70,2013-05-10 10:22:00,
2013-05-10 05:27:00,65.3,65.0,30.47,NNW,343,5.0,10.0,99,0.00,,,0.00,Weather View 32 v70,2013-05-10 10:27:00,
2013-05-10 05:32:00,65.4,64.8,30.48,NW,321,5.0,10.0,98,0.00,,,0.00,Weather View 32 v70,2013-05-10 10:32:00,
2013-05-10 05:37:00,65.5,64.9,30.48,NW,321,6.0,12.0,98,0.00,,,0.00,Weather View 32 v70,2013-05-10 10:37:00,
2013-05-10 05:42:00,65.5,64.9,30.48,NW,321,5.0,12.0,98,0.00,,,0.00,Weather View 32 v70,2013-05-10 10:42:00,
2013-05-10 05:47:00,65.5,64.9,30.49,NNW,343,2.0,12.0,98,0.00,,,0.00,Weather View 32 v70,2013-05-10 10:47:00,
2013-05-10 05:52:00,65.4,64.8,30.49,NNW,343,0.0,12.0,98,0.00,,,0.00,Weather View 32 v70,2013-05-10 10:52:00,
2013-05-10 06:23:00,65.0,64.4,30.50,North,6,0.0,12.0,98,0.00,,,0.00,Weather View 32 v70,2013-05-10 11:23:00,
2013-05-10 06:28:00,64.9,64.3,30.51,North,6,0.0,12.0,98,0.00,,,0.00,Weather View 32 v70,2013-05-10 11:28:00,
2013-05-10 06:33:00,64.8,64.2,30.51,NNE,28,2.0,12.0,98,0.00,,,0.00,Weather View 32 v70,2013-05-10 11:33:00,
2013-05-10 06:38:00,64.7,64.1,30.51,NE,51,1.0,8.0,98,0.00,,,0.00,Weather View 32 v70,2013-05-10 11:38:00,
2013-05-10 06:43:00,64.1,63.5,30.52,ENE,73,4.0,6.0,98,0.00,,,0.00,Weather View 32 v70,2013-05-10 11:43:00,
2013-05-10 06:48:00,63.9,63.3,30.52,ENE,73,3.0,5.0,98,0.00,,,0.00,Weather View 32 v70,2013-05-10 11:48:00,
2013-05-10 06:53:00,63.7,63.1,30.53,East,96,0.0,5.0,98,0.00,,,0.00,Weather View 32 v70,2013-05-10 11:53:00,
2013-05-10 06:58:00,63.7,63.1,30.54,East,96,2.0,5.0,98,0.00,,,0.00,Weather View 32 v70,2013-05-10 11:58:00,
2013-05-10 07:03:00,63.7,63.4,30.54,ENE,73,1.0,5.0,99,0.00,,,0.00,Weather View 32 v70,2013-05-10 12:03:00,
2013-05-10 07:08:00,63.5,63.2,30.54,East,96,1.0,5.0,99,0.00,,,0.00,Weather View 32 v70,2013-05-10 12:08:00,
2013-05-10 07:13:00,63.5,63.2,30.54,East,96,0.0,5.0,99,0.00,,,0.00,Weather View 32 v70,2013-05-10 12:13:00,
2013-05-10 07:18:00,63.5,63.2,30.54,ESE,118,1.0,5.0,99,0.00,,,0.00,Weather View 32 v70,2013-05-10 12:18:00,
2013-05-10 07:23:00,63.8,63.5,30.54,East,96,3.0,5.0,99,0.00,,,0.00,Weather View 32 v70,2013-05-10 12:23:00,
2013-05-10 07:28:00,64.0,63.7,30.55,East,96,2.0,5.0,99,0.00,,,0.00,Weather View 32 v70,2013-05-10 12:28:00,
2013-05-10 07:33:00,64.1,63.8,30.55,NNE,28,0.0,5.0,99,0.00,,,0.00,Weather View 32 v70,2013-05-10 12:33:00,
2013-05-10 07:38:00,64.5,64.2,30.55,East,96,1.0,5.0,99,0.00,,,0.00,Weather View 32 v70,2013-05-10 12:38:00,
2013-05-10 07:43:00,64.5,64.2,30.55,East,96,2.0,5.0,99,0.00,,,0.00,Weather View 32 v70,2013-05-10 12:43:00,
2013-05-10 07:48:00,64.6,64.3,30.55,ENE,73,3.0,5.0,99,0.00,,,0.00,Weather View 32 v70,2013-05-10 12:48:00,
2013-05-10 07:53:00,64.9,64.6,30.55,NE,51,1.0,5.0,99,0.00,,,0.00,Weather View 32 v70,2013-05-10 12:53:00,
2013-05-10 07:58:00,65.1,64.8,30.55,ESE,118,3.0,5.0,99,0.00,,,0.00,Weather View 32 v70,2013-05-10 12:58:00,
2013-05-10 08:03:00,65.1,64.8,30.54,ENE,73,6.0,6.0,99,0.00,,,0.00,Weather View 32 v70,2013-05-10 13:03:00,
2013-05-10 08:08:00,65.2,64.9,30.54,ENE,73,0.0,6.0,99,0.00,,,0.00,Weather View 32 v70,2013-05-10 13:08:00,
2013-05-10 08:13:00,65.3,65.0,30.54,ESE,118,3.0,6.0,99,0.00,,,0.00,Weather View 32 v70,2013-05-10 13:13:00,
2013-05-10 08:18:00,65.1,64.8,30.54,East,96,4.0,6.0,99,0.00,,,0.00,Weather View 32 v70,2013-05-10 13:18:00,
2013-05-10 08:23:00,65.0,64.7,30.54,East,96,5.0,6.0,99,0.00,,,0.00,Weather View 32 v70,2013-05-10 13:23:00,
2013-05-10 08:28:00,65.5,65.2,30.54,North,6,2.0,6.0,99,0.00,,,0.00,Weather View 32 v70,2013-05-10 13:28:00,
2013-05-10 08:33:00,65.4,64.8,30.54,NNE,28,3.0,6.0,98,0.00,,,0.00,Weather View 32 v70,2013-05-10 13:33:00,
2013-05-10 08:38:00,65.4,64.8,30.54,NNE,28,0.0,6.0,98,0.00,,,0.00,Weather View 32 v70,2013-05-10 13:38:00,
2013-05-10 08:43:00,65.5,64.9,30.55,North,6,1.0,6.0,98,0.00,,,0.00,Weather View 32 v70,2013-05-10 13:43:00,
2013-05-10 08:48:00,65.5,64.9,30.55,NNE,28,2.0,6.0,98,0.00,,,0.00,Weather View 32 v70,2013-05-10 13:48:00,
2013-05-10 08:53:00,65.6,65.0,30.55,NNE,28,1.0,6.0,98,0.00,,,0.00,Weather View 32 v70,2013-05-10 13:53:00,
2013-05-10 08:58:00,65.4,64.8,30.55,North,6,3.0,6.0,98,0.00,,,0.00,Weather View 32 v70,2013-05-10 13:58:00,
2013-05-10 09:03:00,65.5,64.9,30.55,NW,321,1.0,6.0,98,0.00,,,0.00,Weather View 32 v70,2013-05-10 14:03:00,
2013-05-10 09:08:00,65.6,65.0,30.55,North,6,3.0,6.0,98,0.00,,,0.00,Weather View 32 v70,2013-05-10 14:08:00,
2013-05-10 09:13:00,65.7,65.1,30.56,NE,51,0.0,6.0,98,0.00,,,0.00,Weather View 32 v70,2013-05-10 14:13:00,
2013-05-10 09:18:00,65.6,65.0,30.56,NW,321,1.0,6.0,98,0.00,,,0.00,Weather View 32 v70,2013-05-10 14:18:00,
2013-05-10 09:23:00,65.9,65.3,30.56,NNE,28,0.0,6.0,98,0.00,,,0.00,Weather View 32 v70,2013-05-10 14:23:00,
2013-05-10 09:28:00,65.7,65.1,30.56,West,276,3.0,5.0,98,0.00,,,0.00,Weather View 32 v70,2013-05-10 14:28:00,
2013-05-10 09:33:00,65.6,65.0,30.56,SW,231,5.0,5.0,98,0.00,,,0.00,Weather View 32 v70,2013-05-10 14:33:00,
2013-05-10 09:38:00,65.7,65.1,30.56,WSW,253,4.0,6.0,98,0.00,,,0.00,Weather View 32 v70,2013-05-10 14:38:00,
2013-05-10 09:43:00,65.8,65.2,30.56,WNW,298,3.0,6.0,98,0.00,,,0.00,Weather View 32 v70,2013-05-10 14:43:00,
2013-05-10 09:48:00,65.8,65.2,30.56,West,276,4.0,6.0,98,0.00,,,0.00,Weather View 32 v70,2013-05-10 14:48:00,
2013-05-10 09:53:00,66.0,65.4,30.56,WNW,298,4.0,6.0,98,0.00,,,0.00,Weather View 32 v70,2013-05-10 14:53:00,
2013-05-10 09:58:00,65.8,64.9,30.56,NW,321,4.0,6.0,97,0.00,,,0.00,Weather View 32 v70,2013-05-10 14:58:00,
2013-05-10 10:03:00,66.1,65.2,30.56,NW,321,2.0,6.0,97,0.00,,,0.00,Weather View 32 v70,2013-05-10 15:03:00,
2013-05-10 10:08:00,66.1,65.2,30.56,NW,321,2.0,6.0,97,0.00,,,0.00,Weather View 32 v70,2013-05-10 15:08:00,
2013-05-10 10:13:00,66.3,65.1,30.56,NNW,343,1.0,6.0,96,0.00,,,0.00,Weather View 32 v70,2013-05-10 15:13:00,
2013-05-10 10:18:00,66.6,65.4,30.55,West,276,1.0,6.0,96,0.00,,,0.00,Weather View 32 v70,2013-05-10 15:18:00,
2013-05-10 10:23:00,66.4,64.9,30.55,North,6,3.0,6.0,95,0.00,,,0.00,Weather View 32 v70,2013-05-10 15:23:00,
2013-05-10 10:28:00,66.9,65.7,30.55,NNE,28,0.0,6.0,96,0.00,,,0.00,Weather View 32 v70,2013-05-10 15:28:00,
2013-05-10 10:33:00,67.0,65.5,30.55,North,6,1.0,6.0,95,0.00,,,0.00,Weather View 32 v70,2013-05-10 15:33:00,
2013-05-10 10:38:00,67.3,65.5,30.55,NNE,28,0.0,5.0,94,0.00,,,0.00,Weather View 32 v70,2013-05-10 15:38:00,
2013-05-10 10:43:00,67.0,64.9,30.55,NNW,343,4.0,5.0,93,0.00,,,0.00,Weather View 32 v70,2013-05-10 15:43:00,
2013-05-10 10:48:00,67.2,65.1,30.55,NE,51,1.0,5.0,93,0.00,,,0.00,Weather View 32 v70,2013-05-10 15:48:00,
2013-05-10 10:53:00,67.2,64.8,30.56,NNW,343,3.0,5.0,92,0.00,,,0.00,Weather View 32 v70,2013-05-10 15:53:00,
2013-05-10 10:58:00,67.3,65.2,30.56,NW,321,5.0,6.0,93,0.00,,,0.00,Weather View 32 v70,2013-05-10 15:58:00,
2013-05-10 11:03:00,67.1,65.0,30.56,North,6,7.0,7.0,93,0.00,,,0.00,Weather View 32 v70,2013-05-10 16:03:00,
2013-05-10 11:08:00,67.5,65.4,30.56,North,6,4.0,8.0,93,0.00,,,0.00,Weather View 32 v70,2013-05-10 16:08:00,
2013-05-10 11:13:00,67.4,64.7,30.56,NNW,343,5.0,8.0,91,0.00,,,0.00,Weather View 32 v70,2013-05-10 16:13:00,
2013-05-10 11:18:00,67.8,65.4,30.56,NNW,343,6.0,8.0,92,0.00,,,0.00,Weather View 32 v70,2013-05-10 16:18:00,
2013-05-10 11:23:00,67.6,64.9,30.56,NNW,343,8.0,8.0,91,0.00,,,0.00,Weather View 32 v70,2013-05-10 16:23:00,
2013-05-10 11:28:00,68.2,65.8,30.56,NNW,343,7.0,8.0,92,0.00,,,0.00,Weather View 32 v70,2013-05-10 16:28:00,
2013-05-10 11:33:00,68.1,65.4,30.56,NNE,28,6.0,9.0,91,0.00,,,0.00,Weather View 32 v70,2013-05-10 16:33:00,
2013-05-10 11:38:00,68.2,65.8,30.57,North,6,5.0,9.0,92,0.00,,,0.00,Weather View 32 v70,2013-05-10 16:38:00,
2013-05-10 11:43:00,67.8,64.7,30.56,NNW,343,3.0,9.0,90,0.00,,,0.00,Weather View 32 v70,2013-05-10 16:43:00,
2013-05-10 11:48:00,67.8,65.1,30.56,North,6,6.0,10.0,91,0.00,,,0.00,Weather View 32 v70,2013-05-10 16:48:00,
2013-05-10 11:53:00,68.0,64.9,30.56,NNE,28,8.0,11.0,90,0.00,,,0.00,Weather View 32 v70,2013-05-10 16:53:00,
2013-05-10 11:58:00,67.9,64.5,30.56,NNW,343,5.0,11.0,89,0.00,,,0.00,Weather View 32 v70,2013-05-10 16:58:00,
2013-05-10 12:03:00,68.4,64.4,30.56,North,6,6.0,12.0,87,0.00,,,0.00,Weather View 32 v70,2013-05-10 17:03:00,
2013-05-10 12:08:00,69.1,65.4,30.56,North,6,9.0,12.0,88,0.00,,,0.00,Weather View 32 v70,2013-05-10 17:08:00,
2013-05-10 12:13:00,69.6,64.5,30.56,NNE,28,6.0,12.0,84,0.00,,,0.00,Weather View 32 v70,2013-05-10 17:13:00,
2013-05-10 12:18:00,69.5,63.7,30.56,North,6,8.0,12.0,82,0.00,,,0.00,Weather View 32 v70,2013-05-10 17:18:00,
2013-05-10 12:23:00,69.8,64.4,30.56,NNE,28,6.0,14.0,83,0.00,,,0.00,Weather View 32 v70,2013-05-10 17:23:00,
2013-05-10 12:28:00,69.8,64.4,30.56,North,6,8.0,14.0,83,0.00,,,0.00,Weather View 32 v70,2013-05-10 17:28:00,
2013-05-10 12:33:00,69.9,63.8,30.56,North,6,7.0,14.0,81,0.00,,,0.00,Weather View 32 v70,2013-05-10 17:33:00,
2013-05-10 12:38:00,69.7,63.6,30.56,NNE,28,6.0,14.0,81,0.00,,,0.00,Weather View 32 v70,2013-05-10 17:38:00,
2013-05-10 12:43:00,69.5,63.4,30.56,NNE,28,9.0,14.0,81,0.00,,,0.00,Weather View 32 v70,2013-05-10 17:43:00,
2013-05-10 12:48:00,69.7,63.9,30.56,NNW,343,5.0,14.0,82,0.00,,,0.00,Weather View 32 v70,2013-05-10 17:48:00,
2013-05-10 13:22:00,69.7,63.9,30.56,North,6,7.0,14.0,82,0.00,,,0.00,Weather View 32 v70,2013-05-10 18:22:00,
2013-05-10 13:27:00,72.0,64.0,30.55,North,6,5.0,13.0,76,0.00,,,0.00,Weather View 32 v70,2013-05-10 18:27:00,
2013-05-10 13:32:00,72.3,63.5,30.55,NNW,343,6.0,13.0,74,0.00,,,0.00,Weather View 32 v70,2013-05-10 18:32:00,
2013-05-10 13:37:00,72.0,62.8,30.54,NNW,343,7.0,13.0,73,0.00,,,0.00,Weather View 32 v70,2013-05-10 18:37:00,
2013-05-10 13:42:00,72.6,63.4,30.54,NNE,28,13.0,13.0,73,0.00,,,0.00,Weather View 32 v70,2013-05-10 18:42:00,
2013-05-10 13:47:00,73.2,63.6,30.54,North,6,9.0,13.0,72,0.00,,,0.00,Weather View 32 v70,2013-05-10 18:47:00,
2013-05-10 13:52:00,73.5,64.3,30.54,East,96,3.0,13.0,73,0.00,,,0.00,Weather View 32 v70,2013-05-10 18:52:00,
2013-05-10 13:57:00,74.2,65.0,30.54,North,6,5.0,13.0,73,0.00,,,0.00,Weather View 32 v70,2013-05-10 18:57:00,
2013-05-10 14:02:00,74.1,63.7,30.53,NNE,28,4.0,13.0,70,0.00,,,0.00,Weather View 32 v70,2013-05-10 19:02:00,
2013-05-10 14:07:00,73.7,63.3,30.54,NE,51,3.0,13.0,70,0.00,,,0.00,Weather View 32 v70,2013-05-10 19:07:00,
2013-05-10 14:12:00,74.3,64.3,30.53,NE,51,2.0,13.0,71,0.00,,,0.00,Weather View 32 v70,2013-05-10 19:12:00,
2013-05-10 14:17:00,74.2,64.2,30.53,East,96,6.0,13.0,71,0.00,,,0.00,Weather View 32 v70,2013-05-10 19:17:00,
2013-05-10 14:22:00,74.4,63.5,30.52,North,6,4.0,13.0,69,0.00,,,0.00,Weather View 32 v70,2013-05-10 19:22:00,
2013-05-10 14:27:00,75.2,64.7,30.53,North,6,5.0,13.0,70,0.00,,,0.00,Weather View 32 v70,2013-05-10 19:27:00,
2013-05-10 14:32:00,75.3,63.1,30.52,NW,321,5.0,13.0,66,0.00,,,0.00,Weather View 32 v70,2013-05-10 19:32:00,
2013-05-10 14:37:00,75.5,63.7,30.52,North,6,3.0,13.0,67,0.00,,,0.00,Weather View 32 v70,2013-05-10 19:37:00,
2013-05-10 14:42:00,75.8,64.9,30.52,NE,51,7.0,13.0,69,0.00,,,0.00,Weather View 32 v70,2013-05-10 19:42:00,
2013-05-10 14:47:00,76.3,64.1,30.52,NNE,28,6.0,13.0,66,0.00,,,0.00,Weather View 32 v70,2013-05-10 19:47:00,
2013-05-10 14:52:00,76.0,64.2,30.52,ENE,73,5.0,13.0,67,0.00,,,0.00,Weather View 32 v70,2013-05-10 19:52:00,
2013-05-10 14:57:00,76.4,63.7,30.52,NNE,28,0.0,13.0,65,0.00,,,0.00,Weather View 32 v70,2013-05-10 19:57:00,
2013-05-10 15:02:00,76.5,63.4,30.52,NNW,343,3.0,13.0,64,0.00,,,0.00,Weather View 32 v70,2013-05-10 20:02:00,
2013-05-10 15:07:00,76.6,63.0,30.51,NE,51,6.0,13.0,63,0.00,,,0.00,Weather View 32 v70,2013-05-10 20:07:00,
2013-05-10 15:12:00,77.1,63.9,30.51,East,96,4.0,13.0,64,0.00,,,0.00,Weather View 32 v70,2013-05-10 20:12:00,
2013-05-10 15:17:00,76.9,63.3,30.51,ENE,73,2.0,13.0,63,0.00,,,0.00,Weather View 32 v70,2013-05-10 20:17:00,
2013-05-10 15:22:00,77.1,62.6,30.51,NNE,28,3.0,13.0,61,0.00,,,0.00,Weather View 32 v70,2013-05-10 20:22:00,
2013-05-10 15:28:00,77.3,62.8,30.51,East,96,3.0,13.0,61,0.00,,,0.00,Weather View 32 v70,2013-05-10 20:28:00,
2013-05-10 15:33:00,77.6,62.1,30.51,NNW,343,5.0,13.0,59,0.00,,,0.00,Weather View 32 v70,2013-05-10 20:33:00,
2013-05-10 15:38:00,78.5,63.9,30.50,North,6,5.0,13.0,61,0.00,,,0.00,Weather View 32 v70,2013-05-10 20:38:00,
2013-05-10 15:43:00,78.5,64.3,30.50,East,96,7.0,13.0,62,0.00,,,0.00,Weather View 32 v70,2013-05-10 20:43:00,
2013-05-10 15:48:00,78.5,62.9,30.51,NE,51,3.0,13.0,59,0.00,,,0.00,Weather View 32 v70,2013-05-10 20:48:00,
2013-05-10 15:53:00,77.9,62.8,30.50,NNE,28,6.0,12.0,60,0.00,,,0.00,Weather View 32 v70,2013-05-10 20:53:00,
2013-05-10 15:58:00,78.2,62.2,30.50,North,6,6.0,12.0,58,0.00,,,0.00,Weather View 32 v70,2013-05-10 20:58:00,
2013-05-10 16:03:00,78.7,62.6,30.50,NE,51,6.0,12.0,58,0.17,,,0.00,Weather View 32 v70,2013-05-10 21:03:00,
2013-05-10 16:08:00,78.8,62.2,30.50,NE,51,5.0,12.0,57,0.00,,,0.00,Weather View 32 v70,2013-05-10 21:08:00,
2013-05-10 16:13:00,78.2,61.7,30.50,NE,51,3.0,12.0,57,0.00,,,0.00,Weather View 32 v70,2013-05-10 21:13:00,
2013-05-10 16:18:00,78.4,63.3,30.50,East,96,6.0,12.0,60,0.00,,,0.00,Weather View 32 v70,2013-05-10 21:18:00,
2013-05-10 16:23:00,78.2,62.2,30.50,NE,51,5.0,12.0,58,0.00,,,0.00,Weather View 32 v70,2013-05-10 21:23:00,
2013-05-10 16:28:00,78.4,61.3,30.49,North,6,3.0,12.0,56,0.00,,,0.00,Weather View 32 v70,2013-05-10 21:28:00,
2013-05-10 16:33:00,79.2,63.1,30.50,NE,51,3.0,12.0,58,0.00,,,0.00,Weather View 32 v70,2013-05-10 21:33:00,
2013-05-10 16:38:00,78.5,62.4,30.50,NE,51,6.0,11.0,58,0.00,,,0.00,Weather View 32 v70,2013-05-10 21:38:00,
2013-05-10 16:43:00,78.2,62.2,30.50,ENE,73,3.0,11.0,58,0.00,,,0.00,Weather View 32 v70,2013-05-10 21:43:00,
2013-05-10 16:48:00,78.4,61.9,30.50,NNE,28,2.0,11.0,57,0.00,,,0.00,Weather View 32 v70,2013-05-10 21:48:00,
2013-05-10 16:53:00,78.5,60.9,30.50,NNW,343,5.0,11.0,55,0.00,,,0.00,Weather View 32 v70,2013-05-10 21:53:00,
2013-05-10 16:58:00,78.6,61.5,30.49,North,6,3.0,11.0,56,0.00,,,0.00,Weather View 32 v70,2013-05-10 21:58:00,
2013-05-10 17:03:00,78.8,61.7,30.49,NNE,28,3.0,11.0,56,0.00,,,0.00,Weather View 32 v70,2013-05-10 22:03:00,
2013-05-10 17:08:00,78.5,61.9,30.49,NW,321,4.0,11.0,57,0.00,,,0.00,Weather View 32 v70,2013-05-10 22:08:00,
2013-05-10 17:13:00,78.8,62.7,30.50,NNE,28,0.0,11.0,58,0.00,,,0.00,Weather View 32 v70,2013-05-10 22:13:00,
2013-05-10 17:18:00,78.8,61.7,30.50,NE,51,4.0,11.0,56,0.00,,,0.00,Weather View 32 v70,2013-05-10 22:18:00,
2013-05-10 17:23:00,78.7,61.6,30.50,North,6,4.0,11.0,56,0.00,,,0.00,Weather View 32 v70,2013-05-10 22:23:00,
2013-05-10 17:28:00,78.3,61.8,30.49,North,6,6.0,11.0,57,0.00,,,0.00,Weather View 32 v70,2013-05-10 22:28:00,
2013-05-10 17:33:00,78.3,62.7,30.50,NNW,343,3.0,11.0,59,0.00,,,0.00,Weather View 32 v70,2013-05-10 22:33:00,
2013-05-10 17:38:00,78.3,62.3,30.49,NNE,28,2.0,11.0,58,0.00,,,0.00,Weather View 32 v70,2013-05-10 22:38:00,
2013-05-10 17:43:00,78.3,62.3,30.50,ENE,73,3.0,11.0,58,0.00,,,0.00,Weather View 32 v70,2013-05-10 22:43:00,
2013-05-10 17:48:00,78.2,62.2,30.49,North,6,4.0,11.0,58,0.00,,,0.00,Weather View 32 v70,2013-05-10 22:48:00,
2013-05-10 17:53:00,78.0,62.5,30.49,North,6,5.0,11.0,59,0.00,,,0.00,Weather View 32 v70,2013-05-10 22:53:00,
2013-05-10 17:58:00,78.0,62.5,30.49,NNE,28,4.0,11.0,59,0.00,,,0.00,Weather View 32 v70,2013-05-10 22:58:00,
2013-05-10 18:03:00,78.0,62.5,30.48,NE,51,6.0,8.0,59,0.00,,,0.00,Weather View 32 v70,2013-05-10 23:03:00,
2013-05-10 18:08:00,78.1,62.6,30.48,North,6,4.0,8.0,59,0.00,,,0.00,Weather View 32 v70,2013-05-10 23:08:00,
2013-05-10 18:13:00,78.1,61.6,30.48,North,6,5.0,8.0,57,0.00,,,0.00,Weather View 32 v70,2013-05-10 23:13:00,
2013-05-10 18:18:00,78.5,62.4,30.48,NNE,28,3.0,8.0,58,0.00,,,0.00,Weather View 32 v70,2013-05-10 23:18:00,
2013-05-10 18:23:00,78.0,62.0,30.48,NNW,343,5.0,8.0,58,0.00,,,0.00,Weather View 32 v70,2013-05-10 23:23:00,
2013-05-10 18:28:00,78.1,62.6,30.48,NE,51,6.0,8.0,59,0.00,,,0.00,Weather View 32 v70,2013-05-10 23:28:00,
2013-05-10 18:33:00,78.0,62.5,30.49,North,6,3.0,8.0,59,0.00,,,0.00,Weather View 32 v70,2013-05-10 23:33:00,
2013-05-10 18:38:00,77.8,62.3,30.48,NNE,28,3.0,8.0,59,0.00,,,0.00,Weather View 32 v70,2013-05-10 23:38:00,
2013-05-10 18:43:00,77.6,62.1,30.49,North,6,4.0,8.0,59,0.00,,,0.00,Weather View 32 v70,2013-05-10 23:43:00,
2013-05-10 18:48:00,77.5,62.0,30.49,NNW,343,6.0,8.0,59,0.00,,,0.00,Weather View 32 v70,2013-05-10 23:48:00,
2013-05-10 18:53:00,77.4,61.9,30.49,NE,51,6.0,8.0,59,0.00,,,0.00,Weather View 32 v70,2013-05-10 23:53:00,
2013-05-10 18:58:00,77.5,62.0,30.50,NNE,28,3.0,8.0,59,0.00,,,0.00,Weather View 32 v70,2013-05-10 23:58:00,
2013-05-10 19:03:00,77.3,61.8,30.50,North,6,3.0,8.0,59,0.00,,,0.00,Weather View 32 v70,2013-05-11 00:03:00,
2013-05-10 19:08:00,77.3,62.3,30.50,North,6,3.0,8.0,60,0.00,,,0.00,Weather View 32 v70,2013-05-11 00:08:00,
2013-05-10 19:13:00,77.1,62.1,30.49,NNE,28,2.0,8.0,60,0.00,,,0.00,Weather View 32 v70,2013-05-11 00:13:00,
2013-05-10 19:18:00,77.0,62.0,30.50,NNE,28,3.0,8.0,60,0.00,,,0.00,Weather View 32 v70,2013-05-11 00:18:00,
2013-05-10 19:23:00,76.8,61.8,30.49,NNE,28,5.0,8.0,60,0.00,,,0.00,Weather View 32 v70,2013-05-11 00:23:00,
2013-05-10 19:28:00,76.6,62.1,30.50,North,6,5.0,8.0,61,0.00,,,0.00,Weather View 32 v70,2013-05-11 00:28:00,
2013-05-10 19:33:00,76.7,61.2,30.50,NNW,343,6.0,8.0,59,0.00,,,0.00,Weather View 32 v70,2013-05-11 00:33:00,
2013-05-10 19:38:00,76.7,61.2,30.50,NNW,343,4.0,8.0,59,0.00,,,0.00,Weather View 32 v70,2013-05-11 00:38:00,
2013-05-10 19:43:00,76.7,61.2,30.50,NNE,28,2.0,8.0,59,0.00,,,0.00,Weather View 32 v70,2013-05-11 00:43:00,
2013-05-10 19:48:00,76.5,61.5,30.51,North,6,3.0,8.0,60,0.00,,,0.00,Weather View 32 v70,2013-05-11 00:48:00,
2013-05-10 19:53:00,76.3,61.8,30.51,NNE,28,3.0,8.0,61,0.00,,,0.00,Weather View 32 v70,2013-05-11 00:53:00,
2013-05-10 19:58:00,76.2,61.7,30.51,North,6,5.0,8.0,61,0.00,,,0.00,Weather View 32 v70,2013-05-11 00:58:00,
2013-05-10 20:03:00,76.2,60.8,30.51,North,6,6.0,8.0,59,0.00,,,0.00,Weather View 32 v70,2013-05-11 01:03:00,
2013-05-10 20:08:00,76.0,60.6,30.51,NNW,343,7.0,10.0,59,0.00,,,0.00,Weather View 32 v70,2013-05-11 01:08:00,
2013-05-10 20:13:00,75.9,61.0,30.51,North,6,3.0,10.0,60,0.00,,,0.00,Weather View 32 v70,2013-05-11 01:13:00,
2013-05-10 20:18:00,75.6,61.2,30.52,NNW,343,3.0,10.0,61,0.00,,,0.00,Weather View 32 v70,2013-05-11 01:18:00,
2013-05-10 20:23:00,75.3,60.9,30.53,North,6,4.0,10.0,61,0.00,,,0.00,Weather View 32 v70,2013-05-11 01:23:00,
2013-05-10 20:28:00,75.3,60.9,30.53,NNW,343,4.0,10.0,61,0.00,,,0.00,Weather View 32 v70,2013-05-11 01:28:00,
2013-05-10 20:33:00,75.2,60.8,30.54,NNE,28,5.0,10.0,61,0.00,,,0.00,Weather View 32 v70,2013-05-11 01:33:00,
2013-05-10 20:38:00,75.1,60.7,30.54,NNE,28,1.0,10.0,61,0.00,,,0.00,Weather View 32 v70,2013-05-11 01:38:00,
2013-05-10 20:43:00,75.0,60.6,30.55,North,6,4.0,10.0,61,0.00,,,0.00,Weather View 32 v70,2013-05-11 01:43:00,
2013-05-10 20:48:00,74.8,60.4,30.54,North,6,4.0,10.0,61,0.00,,,0.00,Weather View 32 v70,2013-05-11 01:48:00,
2013-05-10 20:53:00,74.6,60.7,30.55,North,6,3.0,10.0,62,0.00,,,0.00,Weather View 32 v70,2013-05-11 01:53:00,
2013-05-10 20:58:00,74.4,60.9,30.55,NNE,28,3.0,10.0,63,0.00,,,0.00,Weather View 32 v70,2013-05-11 01:58:00,
2013-05-10 21:03:00,74.1,61.1,30.55,NNE,28,3.0,10.0,64,0.00,,,0.00,Weather View 32 v70,2013-05-11 02:03:00,
2013-05-10 21:08:00,73.8,60.8,30.56,North,6,1.0,8.0,64,0.00,,,0.00,Weather View 32 v70,2013-05-11 02:08:00,
2013-05-10 21:13:00,73.6,60.6,30.56,NNW,343,2.0,8.0,64,0.00,,,0.00,Weather View 32 v70,2013-05-11 02:13:00,
2013-05-10 21:18:00,73.6,61.1,30.56,NNE,28,2.0,8.0,65,0.00,,,0.00,Weather View 32 v70,2013-05-11 02:18:00,
2013-05-10 21:23:00,73.5,61.0,30.56,North,6,1.0,8.0,65,0.00,,,0.00,Weather View 32 v70,2013-05-11 02:23:00,
2013-05-10 21:28:00,73.4,60.9,30.57,North,6,1.0,8.0,65,0.00,,,0.00,Weather View 32 v70,2013-05-11 02:28:00,
2013-05-10 21:33:00,73.4,60.9,30.57,NE,51,2.0,6.0,65,0.00,,,0.00,Weather View 32 v70,2013-05-11 02:33:00,
2013-05-10 21:38:00,73.4,60.9,30.57,NNE,28,3.0,6.0,65,0.00,,,0.00,Weather View 32 v70,2013-05-11 02:38:00,
2013-05-10 21:43:00,73.3,61.2,30.57,NE,51,2.0,5.0,66,0.00,,,0.00,Weather View 32 v70,2013-05-11 02:43:00,
2013-05-10 21:48:00,73.1,61.0,30.57,North,6,2.0,5.0,66,0.00,,,0.00,Weather View 32 v70,2013-05-11 02:48:00,
2013-05-10 21:53:00,72.9,61.3,30.56,NE,51,1.0,6.0,67,0.00,,,0.00,Weather View 32 v70,2013-05-11 02:53:00,
2013-05-10 21:58:00,72.6,61.4,30.57,North,6,2.0,6.0,68,0.00,,,0.00,Weather View 32 v70,2013-05-11 02:58:00,
2013-05-10 22:03:00,72.3,61.1,30.57,NNE,28,3.0,6.0,68,0.00,,,0.00,Weather View 32 v70,2013-05-11 03:03:00,
2013-05-10 22:08:00,72.0,60.8,30.58,NE,51,3.0,6.0,68,0.00,,,0.00,Weather View 32 v70,2013-05-11 03:08:00,
2013-05-10 22:13:00,71.7,61.0,30.59,North,6,1.0,6.0,69,0.00,,,0.00,Weather View 32 v70,2013-05-11 03:13:00,
2013-05-10 22:18:00,71.6,60.9,30.59,North,6,3.0,6.0,69,0.00,,,0.00,Weather View 32 v70,2013-05-11 03:18:00,
2013-05-10 22:23:00,71.8,60.2,30.59,NE,51,9.0,9.0,67,0.00,,,0.00,Weather View 32 v70,2013-05-11 03:23:00,
2013-05-10 22:28:00,71.7,59.3,30.59,North,6,6.0,13.0,65,0.00,,,0.00,Weather View 32 v70,2013-05-11 03:28:00,
2013-05-10 22:33:00,71.8,58.5,30.60,NNE,28,11.0,13.0,63,0.00,,,0.00,Weather View 32 v70,2013-05-11 03:33:00,
2013-05-10 22:38:00,71.6,58.7,30.60,NE,51,6.0,14.0,64,0.00,,,0.00,Weather View 32 v70,2013-05-11 03:38:00,
2013-05-10 22:43:00,71.4,58.5,30.60,NNE,28,7.0,14.0,64,0.00,,,0.00,Weather View 32 v70,2013-05-11 03:43:00,
2013-05-10 22:48:00,71.3,58.9,30.60,North,6,5.0,14.0,65,0.00,,,0.00,Weather View 32 v70,2013-05-11 03:48:00,
2013-05-10 22:53:00,71.0,59.0,30.61,North,6,3.0,14.0,66,0.00,,,0.00,Weather View 32 v70,2013-05-11 03:53:00,
2013-05-10 22:58:00,70.7,58.7,30.61,NNE,28,7.0,14.0,66,0.00,,,0.00,Weather View 32 v70,2013-05-11 03:58:00,
2013-05-10 23:01:00,70.6,59.1,30.61,NNE,28,1.0,14.0,67,0.00,,,0.00,Weather View 32 v70,2013-05-11 04:01:00,
2013-05-10 23:02:00,70.5,59.0,30.61,NNE,28,3.0,14.0,67,0.00,,,0.00,Weather View 32 v70,2013-05-11 04:02:00,
2013-05-10 23:07:00,70.3,58.8,30.61,ENE,73,5.0,14.0,67,0.00,,,0.00,Weather View 32 v70,2013-05-11 04:07:00,
2013-05-10 23:12:00,70.1,59.0,30.61,NNE,28,5.0,14.0,68,0.00,,,0.00,Weather View 32 v70,2013-05-11 04:12:00,
2013-05-10 23:17:00,69.9,58.8,30.61,NNW,343,4.0,14.0,68,0.00,,,0.00,Weather View 32 v70,2013-05-11 04:17:00,
2013-05-10 23:22:00,69.7,58.6,30.61,NE,51,3.0,14.0,68,0.00,,,0.00,Weather View 32 v70,2013-05-11 04:22:00,
2013-05-10 23:27:00,69.6,58.9,30.61,NE,51,3.0,14.0,69,0.00,,,0.00,Weather View 32 v70,2013-05-11 04:27:00,
2013-05-10 23:32:00,69.5,58.8,30.61,NNE,28,3.0,14.0,69,0.00,,,0.00,Weather View 32 v70,2013-05-11 04:32:00,
2013-05-10 23:37:00,69.3,58.7,30.61,NNE,28,5.0,14.0,69,0.00,,,0.00,Weather View 32 v70,2013-05-11 04:37:00,
2013-05-10 23:42:00,69.2,59.0,30.61,NNE,28,5.0,14.0,70,0.00,,,0.00,Weather View 32 v70,2013-05-11 04:42:00,
2013-05-10 23:47:00,69.0,58.8,30.61,NNE,28,6.0,12.0,70,0.00,,,0.00,Weather View 32 v70,2013-05-11 04:47:00,
2013-05-10 23:52:00,69.0,58.8,30.61,NE,51,1.0,12.0,70,0.00,,,0.00,Weather View 32 v70,2013-05-11 04:52:00,
2013-05-10 23:57:00,68.8,59.0,30.61,NNE,28,1.0,12.0,71,0.00,,,0.00,Weather View 32 v70,2013-05-11 04:57:00,